<?xml version="1.0" encoding="UTF-8" standalone="no" ?>
<gpx xmlns="http://www.topografix.com/GPX/1/1" xmlns:xsi="http://www.w3.org/2001/XMLSchema-instance" xsi:schemaLocation="http://www.topografix.com/GPX/1/1 http://www.topografix.com/GPX/1/1/gpx.xsd" version="1.1" creator="VisuGPX - https://www.visugpx.com">
  <metadata>
    <name>LE PERCHAY SANTEUIL MARINES ARTIMONT US GOUZANGREZ</name>
    <desc><![CDATA[FAIT]]></desc>
  </metadata>
  <trk>
    <name><![CDATA[Le Perchay-Santeuil-Marines-Artimont-Us-Gouzangrez-16740706]]></name>
    <trkseg>
      <trkpt lat="49.11177" lon="1.93235">
        <ele>96</ele>
        <time>2023-06-30T13:45:40Z</time>
      </trkpt>
      <trkpt lat="49.11168" lon="1.93239">
        <ele>96</ele>
        <time>2023-06-30T13:45:53Z</time>
      </trkpt>
      <trkpt lat="49.11159" lon="1.9325">
        <ele>96</ele>
        <time>2023-06-30T13:46:08Z</time>
      </trkpt>
      <trkpt lat="49.11154" lon="1.93258">
        <ele>96</ele>
        <time>2023-06-30T13:46:18Z</time>
      </trkpt>
      <trkpt lat="49.11161" lon="1.93276">
        <ele>96</ele>
        <time>2023-06-30T13:46:36Z</time>
      </trkpt>
      <trkpt lat="49.11152" lon="1.93294">
        <ele>96</ele>
        <time>2023-06-30T13:46:56Z</time>
      </trkpt>
      <trkpt lat="49.11144" lon="1.93317">
        <ele>96</ele>
        <time>2023-06-30T13:47:18Z</time>
      </trkpt>
      <trkpt lat="49.11137" lon="1.93338">
        <ele>96</ele>
        <time>2023-06-30T13:47:39Z</time>
      </trkpt>
      <trkpt lat="49.11126" lon="1.93348">
        <ele>96</ele>
        <time>2023-06-30T13:47:56Z</time>
      </trkpt>
      <trkpt lat="49.11098" lon="1.93406">
        <ele>96</ele>
        <time>2023-06-30T13:48:59Z</time>
      </trkpt>
      <trkpt lat="49.11093" lon="1.93418">
        <ele>96</ele>
        <time>2023-06-30T13:49:11Z</time>
      </trkpt>
      <trkpt lat="49.1107" lon="1.93441">
        <ele>95</ele>
        <time>2023-06-30T13:49:48Z</time>
      </trkpt>
      <trkpt lat="49.1106" lon="1.93445">
        <ele>95</ele>
        <time>2023-06-30T13:50:02Z</time>
      </trkpt>
      <trkpt lat="49.11046" lon="1.93444">
        <ele>94</ele>
        <time>2023-06-30T13:50:21Z</time>
      </trkpt>
      <trkpt lat="49.11021" lon="1.9344">
        <ele>94</ele>
        <time>2023-06-30T13:50:54Z</time>
      </trkpt>
      <trkpt lat="49.11009" lon="1.93447">
        <ele>93</ele>
        <time>2023-06-30T13:51:11Z</time>
      </trkpt>
      <trkpt lat="49.11047" lon="1.93534">
        <ele>91</ele>
        <time>2023-06-30T13:52:43Z</time>
      </trkpt>
      <trkpt lat="49.11058" lon="1.93584">
        <ele>90</ele>
        <time>2023-06-30T13:53:29Z</time>
      </trkpt>
      <trkpt lat="49.11069" lon="1.93627">
        <ele>88</ele>
        <time>2023-06-30T13:54:09Z</time>
      </trkpt>
      <trkpt lat="49.11094" lon="1.93679">
        <ele>85</ele>
        <time>2023-06-30T13:55:05Z</time>
      </trkpt>
      <trkpt lat="49.11105" lon="1.937">
        <ele>83</ele>
        <time>2023-06-30T13:55:29Z</time>
      </trkpt>
      <trkpt lat="49.11116" lon="1.93713">
        <ele>82</ele>
        <time>2023-06-30T13:55:47Z</time>
      </trkpt>
      <trkpt lat="49.1121" lon="1.93807">
        <ele>73</ele>
        <time>2023-06-30T13:58:17Z</time>
      </trkpt>
      <trkpt lat="49.11287" lon="1.93909">
        <ele>70</ele>
        <time>2023-06-30T14:00:33Z</time>
      </trkpt>
      <trkpt lat="49.11324" lon="1.93978">
        <ele>67</ele>
        <time>2023-06-30T14:01:51Z</time>
      </trkpt>
      <trkpt lat="49.11364" lon="1.94024">
        <ele>69</ele>
        <time>2023-06-30T14:02:58Z</time>
      </trkpt>
      <trkpt lat="49.11431" lon="1.94338">
        <ele>67</ele>
        <time>2023-06-30T14:07:47Z</time>
      </trkpt>
      <trkpt lat="49.1146" lon="1.94447">
        <ele>65</ele>
        <time>2023-06-30T14:09:29Z</time>
      </trkpt>
      <trkpt lat="49.11486" lon="1.94503">
        <ele>65</ele>
        <time>2023-06-30T14:10:29Z</time>
      </trkpt>
      <trkpt lat="49.11514" lon="1.94552">
        <ele>63</ele>
        <time>2023-06-30T14:11:26Z</time>
      </trkpt>
      <trkpt lat="49.11623" lon="1.94647">
        <ele>62</ele>
        <time>2023-06-30T14:14:14Z</time>
      </trkpt>
      <trkpt lat="49.11639" lon="1.9464">
        <ele>65</ele>
        <time>2023-06-30T14:14:36Z</time>
      </trkpt>
      <trkpt lat="49.11654" lon="1.94637">
        <ele>67</ele>
        <time>2023-06-30T14:14:56Z</time>
      </trkpt>
      <trkpt lat="49.11678" lon="1.94645">
        <ele>68</ele>
        <time>2023-06-30T14:15:29Z</time>
      </trkpt>
      <trkpt lat="49.11704" lon="1.94661">
        <ele>68</ele>
        <time>2023-06-30T14:16:06Z</time>
      </trkpt>
      <trkpt lat="49.11738" lon="1.94689">
        <ele>68</ele>
        <time>2023-06-30T14:16:58Z</time>
      </trkpt>
      <trkpt lat="49.11779" lon="1.94733">
        <ele>67</ele>
        <time>2023-06-30T14:18:05Z</time>
      </trkpt>
      <trkpt lat="49.1187" lon="1.94848">
        <ele>64</ele>
        <time>2023-06-30T14:20:42Z</time>
      </trkpt>
      <trkpt lat="49.11906" lon="1.9486">
        <ele>66</ele>
        <time>2023-06-30T14:21:31Z</time>
      </trkpt>
      <trkpt lat="49.1193" lon="1.94854">
        <ele>66</ele>
        <time>2023-06-30T14:22:04Z</time>
      </trkpt>
      <trkpt lat="49.11951" lon="1.94831">
        <ele>66</ele>
        <time>2023-06-30T14:22:38Z</time>
      </trkpt>
      <trkpt lat="49.11973" lon="1.94758">
        <ele>64</ele>
        <time>2023-06-30T14:23:48Z</time>
      </trkpt>
      <trkpt lat="49.12026" lon="1.94558">
        <ele>65</ele>
        <time>2023-06-30T14:26:57Z</time>
      </trkpt>
      <trkpt lat="49.12033" lon="1.94592">
        <ele>64</ele>
        <time>2023-06-30T14:27:28Z</time>
      </trkpt>
      <trkpt lat="49.12042" lon="1.94623">
        <ele>62</ele>
        <time>2023-06-30T14:27:58Z</time>
      </trkpt>
      <trkpt lat="49.12055" lon="1.9466">
        <ele>60</ele>
        <time>2023-06-30T14:28:34Z</time>
      </trkpt>
      <trkpt lat="49.12065" lon="1.94681">
        <ele>59</ele>
        <time>2023-06-30T14:28:57Z</time>
      </trkpt>
      <trkpt lat="49.12173" lon="1.94856">
        <ele>57</ele>
        <time>2023-06-30T14:32:27Z</time>
      </trkpt>
      <trkpt lat="49.12197" lon="1.94892">
        <ele>59</ele>
        <time>2023-06-30T14:33:12Z</time>
      </trkpt>
      <trkpt lat="49.1221" lon="1.94905">
        <ele>60</ele>
        <time>2023-06-30T14:33:33Z</time>
      </trkpt>
      <trkpt lat="49.12226" lon="1.94913">
        <ele>61</ele>
        <time>2023-06-30T14:33:55Z</time>
      </trkpt>
      <trkpt lat="49.12244" lon="1.94913">
        <ele>62</ele>
        <time>2023-06-30T14:34:19Z</time>
      </trkpt>
      <trkpt lat="49.12274" lon="1.94892">
        <ele>61</ele>
        <time>2023-06-30T14:35:03Z</time>
      </trkpt>
      <trkpt lat="49.123" lon="1.94871">
        <ele>61</ele>
        <time>2023-06-30T14:35:43Z</time>
      </trkpt>
      <trkpt lat="49.12318" lon="1.94857">
        <ele>61</ele>
        <time>2023-06-30T14:36:09Z</time>
      </trkpt>
      <trkpt lat="49.12332" lon="1.94837">
        <ele>62</ele>
        <time>2023-06-30T14:36:35Z</time>
      </trkpt>
      <trkpt lat="49.12349" lon="1.94835">
        <ele>61</ele>
        <time>2023-06-30T14:36:58Z</time>
      </trkpt>
      <trkpt lat="49.12376" lon="1.94843">
        <ele>58</ele>
        <time>2023-06-30T14:37:34Z</time>
      </trkpt>
      <trkpt lat="49.12414" lon="1.94882">
        <ele>54</ele>
        <time>2023-06-30T14:38:36Z</time>
      </trkpt>
      <trkpt lat="49.1243" lon="1.949">
        <ele>53</ele>
        <time>2023-06-30T14:39:02Z</time>
      </trkpt>
      <trkpt lat="49.12468" lon="1.94947">
        <ele>53</ele>
        <time>2023-06-30T14:40:07Z</time>
      </trkpt>
      <trkpt lat="49.12555" lon="1.95029">
        <ele>56</ele>
        <time>2023-06-30T14:42:24Z</time>
      </trkpt>
      <trkpt lat="49.1255" lon="1.95052">
        <ele>57</ele>
        <time>2023-06-30T14:42:45Z</time>
      </trkpt>
      <trkpt lat="49.1255" lon="1.95077">
        <ele>58</ele>
        <time>2023-06-30T14:43:07Z</time>
      </trkpt>
      <trkpt lat="49.12549" lon="1.95113">
        <ele>60</ele>
        <time>2023-06-30T14:43:38Z</time>
      </trkpt>
      <trkpt lat="49.12547" lon="1.95142">
        <ele>61</ele>
        <time>2023-06-30T14:44:04Z</time>
      </trkpt>
      <trkpt lat="49.12544" lon="1.95152">
        <ele>61</ele>
        <time>2023-06-30T14:44:13Z</time>
      </trkpt>
      <trkpt lat="49.12556" lon="1.95172">
        <ele>64</ele>
        <time>2023-06-30T14:44:37Z</time>
      </trkpt>
      <trkpt lat="49.1257" lon="1.95177">
        <ele>66</ele>
        <time>2023-06-30T14:44:56Z</time>
      </trkpt>
      <trkpt lat="49.12581" lon="1.95171">
        <ele>67</ele>
        <time>2023-06-30T14:45:12Z</time>
      </trkpt>
      <trkpt lat="49.12581" lon="1.95184">
        <ele>68</ele>
        <time>2023-06-30T14:45:23Z</time>
      </trkpt>
      <trkpt lat="49.12579" lon="1.95195">
        <ele>68</ele>
        <time>2023-06-30T14:45:33Z</time>
      </trkpt>
      <trkpt lat="49.1258" lon="1.95223">
        <ele>71</ele>
        <time>2023-06-30T14:45:58Z</time>
      </trkpt>
      <trkpt lat="49.12581" lon="1.95241">
        <ele>72</ele>
        <time>2023-06-30T14:46:13Z</time>
      </trkpt>
      <trkpt lat="49.12577" lon="1.95258">
        <ele>73</ele>
        <time>2023-06-30T14:46:29Z</time>
      </trkpt>
      <trkpt lat="49.12567" lon="1.95299">
        <ele>74</ele>
        <time>2023-06-30T14:47:07Z</time>
      </trkpt>
      <trkpt lat="49.12564" lon="1.95324">
        <ele>76</ele>
        <time>2023-06-30T14:47:30Z</time>
      </trkpt>
      <trkpt lat="49.12568" lon="1.95347">
        <ele>78</ele>
        <time>2023-06-30T14:47:50Z</time>
      </trkpt>
      <trkpt lat="49.12571" lon="1.95371">
        <ele>80</ele>
        <time>2023-06-30T14:48:12Z</time>
      </trkpt>
      <trkpt lat="49.12574" lon="1.95392">
        <ele>81</ele>
        <time>2023-06-30T14:48:30Z</time>
      </trkpt>
      <trkpt lat="49.12574" lon="1.95409">
        <ele>82</ele>
        <time>2023-06-30T14:48:45Z</time>
      </trkpt>
      <trkpt lat="49.1258" lon="1.95425">
        <ele>84</ele>
        <time>2023-06-30T14:49:01Z</time>
      </trkpt>
      <trkpt lat="49.12587" lon="1.95465">
        <ele>85</ele>
        <time>2023-06-30T14:49:38Z</time>
      </trkpt>
      <trkpt lat="49.12589" lon="1.9549">
        <ele>85</ele>
        <time>2023-06-30T14:49:59Z</time>
      </trkpt>
      <trkpt lat="49.12596" lon="1.9552">
        <ele>85</ele>
        <time>2023-06-30T14:50:27Z</time>
      </trkpt>
      <trkpt lat="49.12605" lon="1.95578">
        <ele>83</ele>
        <time>2023-06-30T14:51:19Z</time>
      </trkpt>
      <trkpt lat="49.12618" lon="1.95658">
        <ele>84</ele>
        <time>2023-06-30T14:52:31Z</time>
      </trkpt>
      <trkpt lat="49.12622" lon="1.95736">
        <ele>84</ele>
        <time>2023-06-30T14:53:40Z</time>
      </trkpt>
      <trkpt lat="49.12618" lon="1.9577">
        <ele>84</ele>
        <time>2023-06-30T14:54:10Z</time>
      </trkpt>
      <trkpt lat="49.12622" lon="1.9578">
        <ele>84</ele>
        <time>2023-06-30T14:54:20Z</time>
      </trkpt>
      <trkpt lat="49.12625" lon="1.958">
        <ele>84</ele>
        <time>2023-06-30T14:54:38Z</time>
      </trkpt>
      <trkpt lat="49.12638" lon="1.95833">
        <ele>86</ele>
        <time>2023-06-30T14:55:12Z</time>
      </trkpt>
      <trkpt lat="49.12645" lon="1.9585">
        <ele>86</ele>
        <time>2023-06-30T14:55:29Z</time>
      </trkpt>
      <trkpt lat="49.12709" lon="1.95978">
        <ele>89</ele>
        <time>2023-06-30T14:57:50Z</time>
      </trkpt>
      <trkpt lat="49.1273" lon="1.96022">
        <ele>89</ele>
        <time>2023-06-30T14:58:37Z</time>
      </trkpt>
      <trkpt lat="49.12807" lon="1.96182">
        <ele>90</ele>
        <time>2023-06-30T15:01:31Z</time>
      </trkpt>
      <trkpt lat="49.12868" lon="1.96306">
        <ele>91</ele>
        <time>2023-06-30T15:03:46Z</time>
      </trkpt>
      <trkpt lat="49.13032" lon="1.96055">
        <ele>96</ele>
        <time>2023-06-30T15:08:56Z</time>
      </trkpt>
      <trkpt lat="49.13129" lon="1.96238">
        <ele>97</ele>
        <time>2023-06-30T15:12:22Z</time>
      </trkpt>
      <trkpt lat="49.13155" lon="1.96281">
        <ele>97</ele>
        <time>2023-06-30T15:13:13Z</time>
      </trkpt>
      <trkpt lat="49.13199" lon="1.96339">
        <ele>98</ele>
        <time>2023-06-30T15:14:30Z</time>
      </trkpt>
      <trkpt lat="49.13222" lon="1.96368">
        <ele>98</ele>
        <time>2023-06-30T15:15:10Z</time>
      </trkpt>
      <trkpt lat="49.13277" lon="1.96427">
        <ele>97</ele>
        <time>2023-06-30T15:16:40Z</time>
      </trkpt>
      <trkpt lat="49.13354" lon="1.96504">
        <ele>97</ele>
        <time>2023-06-30T15:18:43Z</time>
      </trkpt>
      <trkpt lat="49.13609" lon="1.96798">
        <ele>103</ele>
        <time>2023-06-30T15:25:49Z</time>
      </trkpt>
      <trkpt lat="49.13616" lon="1.96805">
        <ele>102</ele>
        <time>2023-06-30T15:26:00Z</time>
      </trkpt>
      <trkpt lat="49.13692" lon="1.96925">
        <ele>102</ele>
        <time>2023-06-30T15:28:26Z</time>
      </trkpt>
      <trkpt lat="49.13748" lon="1.97021">
        <ele>103</ele>
        <time>2023-06-30T15:30:18Z</time>
      </trkpt>
      <trkpt lat="49.13757" lon="1.97041">
        <ele>103</ele>
        <time>2023-06-30T15:30:39Z</time>
      </trkpt>
      <trkpt lat="49.13764" lon="1.97054">
        <ele>103</ele>
        <time>2023-06-30T15:30:54Z</time>
      </trkpt>
      <trkpt lat="49.13789" lon="1.97079">
        <ele>104</ele>
        <time>2023-06-30T15:31:34Z</time>
      </trkpt>
      <trkpt lat="49.13953" lon="1.97302">
        <ele>106</ele>
        <time>2023-06-30T15:36:27Z</time>
      </trkpt>
      <trkpt lat="49.13997" lon="1.97359">
        <ele>106</ele>
        <time>2023-06-30T15:37:44Z</time>
      </trkpt>
      <trkpt lat="49.14073" lon="1.97491">
        <ele>107</ele>
        <time>2023-06-30T15:40:17Z</time>
      </trkpt>
      <trkpt lat="49.14122" lon="1.97585">
        <ele>107</ele>
        <time>2023-06-30T15:42:02Z</time>
      </trkpt>
      <trkpt lat="49.14185" lon="1.97698">
        <ele>107</ele>
        <time>2023-06-30T15:44:12Z</time>
      </trkpt>
      <trkpt lat="49.14212" lon="1.97735">
        <ele>106</ele>
        <time>2023-06-30T15:45:00Z</time>
      </trkpt>
      <trkpt lat="49.14268" lon="1.97786">
        <ele>105</ele>
        <time>2023-06-30T15:46:27Z</time>
      </trkpt>
      <trkpt lat="49.14295" lon="1.97892">
        <ele>110</ele>
        <time>2023-06-30T15:48:06Z</time>
      </trkpt>
      <trkpt lat="49.1433" lon="1.97988">
        <ele>111</ele>
        <time>2023-06-30T15:49:42Z</time>
      </trkpt>
      <trkpt lat="49.14337" lon="1.98003">
        <ele>111</ele>
        <time>2023-06-30T15:49:59Z</time>
      </trkpt>
      <trkpt lat="49.14344" lon="1.98026">
        <ele>111</ele>
        <time>2023-06-30T15:50:21Z</time>
      </trkpt>
      <trkpt lat="49.14386" lon="1.98094">
        <ele>113</ele>
        <time>2023-06-30T15:51:42Z</time>
      </trkpt>
      <trkpt lat="49.14401" lon="1.98128">
        <ele>114</ele>
        <time>2023-06-30T15:52:18Z</time>
      </trkpt>
      <trkpt lat="49.14434" lon="1.98221">
        <ele>116</ele>
        <time>2023-06-30T15:53:50Z</time>
      </trkpt>
      <trkpt lat="49.14463" lon="1.98284">
        <ele>118</ele>
        <time>2023-06-30T15:54:58Z</time>
      </trkpt>
      <trkpt lat="49.14473" lon="1.98311">
        <ele>119</ele>
        <time>2023-06-30T15:55:25Z</time>
      </trkpt>
      <trkpt lat="49.14476" lon="1.98326">
        <ele>119</ele>
        <time>2023-06-30T15:55:38Z</time>
      </trkpt>
      <trkpt lat="49.14479" lon="1.9835">
        <ele>119</ele>
        <time>2023-06-30T15:56:00Z</time>
      </trkpt>
      <trkpt lat="49.14483" lon="1.98362">
        <ele>120</ele>
        <time>2023-06-30T15:56:12Z</time>
      </trkpt>
      <trkpt lat="49.14482" lon="1.98366">
        <ele>120</ele>
        <time>2023-06-30T15:56:15Z</time>
      </trkpt>
      <trkpt lat="49.14471" lon="1.98386">
        <ele>119</ele>
        <time>2023-06-30T15:56:38Z</time>
      </trkpt>
      <trkpt lat="49.14469" lon="1.98396">
        <ele>119</ele>
        <time>2023-06-30T15:56:47Z</time>
      </trkpt>
      <trkpt lat="49.14468" lon="1.98424">
        <ele>119</ele>
        <time>2023-06-30T15:57:12Z</time>
      </trkpt>
      <trkpt lat="49.14473" lon="1.98471">
        <ele>120</ele>
        <time>2023-06-30T15:57:53Z</time>
      </trkpt>
      <trkpt lat="49.14493" lon="1.98578">
        <ele>122</ele>
        <time>2023-06-30T15:59:30Z</time>
      </trkpt>
      <trkpt lat="49.14506" lon="1.98632">
        <ele>123</ele>
        <time>2023-06-30T16:00:21Z</time>
      </trkpt>
      <trkpt lat="49.14529" lon="1.98703">
        <ele>123</ele>
        <time>2023-06-30T16:01:30Z</time>
      </trkpt>
      <trkpt lat="49.1454" lon="1.98713">
        <ele>124</ele>
        <time>2023-06-30T16:01:47Z</time>
      </trkpt>
      <trkpt lat="49.1459" lon="1.98803">
        <ele>128</ele>
        <time>2023-06-30T16:03:30Z</time>
      </trkpt>
      <trkpt lat="49.14613" lon="1.98847">
        <ele>130</ele>
        <time>2023-06-30T16:04:19Z</time>
      </trkpt>
      <trkpt lat="49.14628" lon="1.98901">
        <ele>132</ele>
        <time>2023-06-30T16:05:10Z</time>
      </trkpt>
      <trkpt lat="49.14665" lon="1.98957">
        <ele>136</ele>
        <time>2023-06-30T16:06:20Z</time>
      </trkpt>
      <trkpt lat="49.1477" lon="1.99129">
        <ele>153</ele>
        <time>2023-06-30T16:09:45Z</time>
      </trkpt>
      <trkpt lat="49.14807" lon="1.99157">
        <ele>160</ele>
        <time>2023-06-30T16:10:40Z</time>
      </trkpt>
      <trkpt lat="49.14798" lon="1.99246">
        <ele>159</ele>
        <time>2023-06-30T16:11:59Z</time>
      </trkpt>
      <trkpt lat="49.1478" lon="1.99289">
        <ele>157</ele>
        <time>2023-06-30T16:12:43Z</time>
      </trkpt>
      <trkpt lat="49.14768" lon="1.99352">
        <ele>157</ele>
        <time>2023-06-30T16:13:41Z</time>
      </trkpt>
      <trkpt lat="49.14777" lon="1.99415">
        <ele>159</ele>
        <time>2023-06-30T16:14:37Z</time>
      </trkpt>
      <trkpt lat="49.14861" lon="1.99639">
        <ele>160</ele>
        <time>2023-06-30T16:18:22Z</time>
      </trkpt>
      <trkpt lat="49.149" lon="1.99757">
        <ele>165</ele>
        <time>2023-06-30T16:20:18Z</time>
      </trkpt>
      <trkpt lat="49.14898" lon="1.99832">
        <ele>170</ele>
        <time>2023-06-30T16:21:23Z</time>
      </trkpt>
      <trkpt lat="49.14869" lon="1.9995">
        <ele>172</ele>
        <time>2023-06-30T16:23:13Z</time>
      </trkpt>
      <trkpt lat="49.14818" lon="2.00104">
        <ele>172</ele>
        <time>2023-06-30T16:25:44Z</time>
      </trkpt>
      <trkpt lat="49.14817" lon="2.00109">
        <ele>172</ele>
        <time>2023-06-30T16:25:49Z</time>
      </trkpt>
      <trkpt lat="49.14816" lon="2.00146">
        <ele>171</ele>
        <time>2023-06-30T16:26:21Z</time>
      </trkpt>
      <trkpt lat="49.1483" lon="2.00304">
        <ele>166</ele>
        <time>2023-06-30T16:28:40Z</time>
      </trkpt>
      <trkpt lat="49.14824" lon="2.00389">
        <ele>165</ele>
        <time>2023-06-30T16:29:55Z</time>
      </trkpt>
      <trkpt lat="49.14814" lon="2.00448">
        <ele>166</ele>
        <time>2023-06-30T16:30:48Z</time>
      </trkpt>
      <trkpt lat="49.14803" lon="2.00577">
        <ele>169</ele>
        <time>2023-06-30T16:32:41Z</time>
      </trkpt>
      <trkpt lat="49.14733" lon="2.00785">
        <ele>175</ele>
        <time>2023-06-30T16:36:06Z</time>
      </trkpt>
      <trkpt lat="49.14719" lon="2.00812">
        <ele>175</ele>
        <time>2023-06-30T16:36:36Z</time>
      </trkpt>
      <trkpt lat="49.14698" lon="2.00857">
        <ele>175</ele>
        <time>2023-06-30T16:37:24Z</time>
      </trkpt>
      <trkpt lat="49.14681" lon="2.00911">
        <ele>174</ele>
        <time>2023-06-30T16:38:16Z</time>
      </trkpt>
      <trkpt lat="49.14634" lon="2.01013">
        <ele>174</ele>
        <time>2023-06-30T16:40:05Z</time>
      </trkpt>
      <trkpt lat="49.14622" lon="2.01079">
        <ele>173</ele>
        <time>2023-06-30T16:41:05Z</time>
      </trkpt>
      <trkpt lat="49.1458" lon="2.01246">
        <ele>162</ele>
        <time>2023-06-30T16:43:41Z</time>
      </trkpt>
      <trkpt lat="49.14579" lon="2.01249">
        <ele>161</ele>
        <time>2023-06-30T16:43:44Z</time>
      </trkpt>
      <trkpt lat="49.1458" lon="2.01246">
        <ele>162</ele>
        <time>2023-06-30T16:43:47Z</time>
      </trkpt>
      <trkpt lat="49.14421" lon="2.0111">
        <ele>159</ele>
        <time>2023-06-30T16:47:50Z</time>
      </trkpt>
      <trkpt lat="49.14373" lon="2.01065">
        <ele>153</ele>
        <time>2023-06-30T16:49:05Z</time>
      </trkpt>
      <trkpt lat="49.14364" lon="2.0106">
        <ele>152</ele>
        <time>2023-06-30T16:49:18Z</time>
      </trkpt>
      <trkpt lat="49.14356" lon="2.01064">
        <ele>151</ele>
        <time>2023-06-30T16:49:29Z</time>
      </trkpt>
      <trkpt lat="49.14352" lon="2.01075">
        <ele>151</ele>
        <time>2023-06-30T16:49:40Z</time>
      </trkpt>
      <trkpt lat="49.14341" lon="2.01143">
        <ele>149</ele>
        <time>2023-06-30T16:50:41Z</time>
      </trkpt>
      <trkpt lat="49.14333" lon="2.01152">
        <ele>148</ele>
        <time>2023-06-30T16:50:55Z</time>
      </trkpt>
      <trkpt lat="49.14276" lon="2.01178">
        <ele>141</ele>
        <time>2023-06-30T16:52:14Z</time>
      </trkpt>
      <trkpt lat="49.14263" lon="2.01164">
        <ele>140</ele>
        <time>2023-06-30T16:52:35Z</time>
      </trkpt>
      <trkpt lat="49.14089" lon="2.00933">
        <ele>132</ele>
        <time>2023-06-30T16:57:43Z</time>
      </trkpt>
      <trkpt lat="49.14015" lon="2.00844">
        <ele>129</ele>
        <time>2023-06-30T16:59:49Z</time>
      </trkpt>
      <trkpt lat="49.14034" lon="2.00753">
        <ele>129</ele>
        <time>2023-06-30T17:01:12Z</time>
      </trkpt>
      <trkpt lat="49.14054" lon="2.00617">
        <ele>126</ele>
        <time>2023-06-30T17:03:14Z</time>
      </trkpt>
      <trkpt lat="49.14062" lon="2.00448">
        <ele>120</ele>
        <time>2023-06-30T17:05:42Z</time>
      </trkpt>
      <trkpt lat="49.14062" lon="2.00364">
        <ele>121</ele>
        <time>2023-06-30T17:06:55Z</time>
      </trkpt>
      <trkpt lat="49.14055" lon="2.00291">
        <ele>121</ele>
        <time>2023-06-30T17:07:59Z</time>
      </trkpt>
      <trkpt lat="49.14031" lon="2.00059">
        <ele>120</ele>
        <time>2023-06-30T17:11:24Z</time>
      </trkpt>
      <trkpt lat="49.14024" lon="2.00014">
        <ele>120</ele>
        <time>2023-06-30T17:12:05Z</time>
      </trkpt>
      <trkpt lat="49.14022" lon="2.00008">
        <ele>120</ele>
        <time>2023-06-30T17:12:11Z</time>
      </trkpt>
      <trkpt lat="49.14017" lon="1.99977">
        <ele>120</ele>
        <time>2023-06-30T17:12:38Z</time>
      </trkpt>
      <trkpt lat="49.14012" lon="1.99926">
        <ele>121</ele>
        <time>2023-06-30T17:13:23Z</time>
      </trkpt>
      <trkpt lat="49.14009" lon="1.99869">
        <ele>121</ele>
        <time>2023-06-30T17:14:13Z</time>
      </trkpt>
      <trkpt lat="49.14003" lon="1.99797">
        <ele>122</ele>
        <time>2023-06-30T17:15:17Z</time>
      </trkpt>
      <trkpt lat="49.13995" lon="1.99739">
        <ele>122</ele>
        <time>2023-06-30T17:16:09Z</time>
      </trkpt>
      <trkpt lat="49.13989" lon="1.99701">
        <ele>122</ele>
        <time>2023-06-30T17:16:43Z</time>
      </trkpt>
      <trkpt lat="49.1397" lon="1.99614">
        <ele>120</ele>
        <time>2023-06-30T17:18:03Z</time>
      </trkpt>
      <trkpt lat="49.1396" lon="1.99577">
        <ele>118</ele>
        <time>2023-06-30T17:18:38Z</time>
      </trkpt>
      <trkpt lat="49.13919" lon="1.99447">
        <ele>114</ele>
        <time>2023-06-30T17:20:44Z</time>
      </trkpt>
      <trkpt lat="49.13867" lon="1.9931">
        <ele>110</ele>
        <time>2023-06-30T17:23:02Z</time>
      </trkpt>
      <trkpt lat="49.13865" lon="1.99306">
        <ele>110</ele>
        <time>2023-06-30T17:23:06Z</time>
      </trkpt>
      <trkpt lat="49.13863" lon="1.99306">
        <ele>110</ele>
        <time>2023-06-30T17:23:09Z</time>
      </trkpt>
      <trkpt lat="49.13816" lon="1.99551">
        <ele>108</ele>
        <time>2023-06-30T17:26:52Z</time>
      </trkpt>
      <trkpt lat="49.13803" lon="1.99622">
        <ele>108</ele>
        <time>2023-06-30T17:27:56Z</time>
      </trkpt>
      <trkpt lat="49.13802" lon="1.99648">
        <ele>108</ele>
        <time>2023-06-30T17:28:19Z</time>
      </trkpt>
      <trkpt lat="49.13731" lon="1.99695">
        <ele>112</ele>
        <time>2023-06-30T17:30:02Z</time>
      </trkpt>
      <trkpt lat="49.13692" lon="1.99741">
        <ele>114</ele>
        <time>2023-06-30T17:31:08Z</time>
      </trkpt>
      <trkpt lat="49.13627" lon="1.99812">
        <ele>117</ele>
        <time>2023-06-30T17:32:55Z</time>
      </trkpt>
      <trkpt lat="49.1344" lon="1.99987">
        <ele>124</ele>
        <time>2023-06-30T17:37:47Z</time>
      </trkpt>
      <trkpt lat="49.13421" lon="1.99978">
        <ele>124</ele>
        <time>2023-06-30T17:38:14Z</time>
      </trkpt>
      <trkpt lat="49.13231" lon="1.99933">
        <ele>128</ele>
        <time>2023-06-30T17:42:30Z</time>
      </trkpt>
      <trkpt lat="49.13132" lon="1.99899">
        <ele>132</ele>
        <time>2023-06-30T17:44:46Z</time>
      </trkpt>
      <trkpt lat="49.13113" lon="1.99881">
        <ele>133</ele>
        <time>2023-06-30T17:45:16Z</time>
      </trkpt>
      <trkpt lat="49.13086" lon="1.99839">
        <ele>135</ele>
        <time>2023-06-30T17:46:07Z</time>
      </trkpt>
      <trkpt lat="49.13058" lon="1.99744">
        <ele>139</ele>
        <time>2023-06-30T17:47:38Z</time>
      </trkpt>
      <trkpt lat="49.13018" lon="1.99699">
        <ele>146</ele>
        <time>2023-06-30T17:48:44Z</time>
      </trkpt>
      <trkpt lat="49.12986" lon="1.99684">
        <ele>149</ele>
        <time>2023-06-30T17:49:29Z</time>
      </trkpt>
      <trkpt lat="49.12912" lon="1.99691">
        <ele>149</ele>
        <time>2023-06-30T17:51:08Z</time>
      </trkpt>
      <trkpt lat="49.12859" lon="1.99725">
        <ele>150</ele>
        <time>2023-06-30T17:52:25Z</time>
      </trkpt>
      <trkpt lat="49.12823" lon="1.99737">
        <ele>151</ele>
        <time>2023-06-30T17:53:14Z</time>
      </trkpt>
      <trkpt lat="49.12819" lon="1.99729">
        <ele>151</ele>
        <time>2023-06-30T17:53:23Z</time>
      </trkpt>
      <trkpt lat="49.128" lon="1.99749">
        <ele>151</ele>
        <time>2023-06-30T17:53:53Z</time>
      </trkpt>
      <trkpt lat="49.12792" lon="1.99742">
        <ele>152</ele>
        <time>2023-06-30T17:54:06Z</time>
      </trkpt>
      <trkpt lat="49.12736" lon="1.997">
        <ele>153</ele>
        <time>2023-06-30T17:55:29Z</time>
      </trkpt>
      <trkpt lat="49.12677" lon="1.99645">
        <ele>153</ele>
        <time>2023-06-30T17:57:01Z</time>
      </trkpt>
      <trkpt lat="49.1264" lon="1.99618">
        <ele>151</ele>
        <time>2023-06-30T17:57:56Z</time>
      </trkpt>
      <trkpt lat="49.12604" lon="1.99585">
        <ele>148</ele>
        <time>2023-06-30T17:58:52Z</time>
      </trkpt>
      <trkpt lat="49.126" lon="1.99584">
        <ele>148</ele>
        <time>2023-06-30T17:58:57Z</time>
      </trkpt>
      <trkpt lat="49.12581" lon="1.99594">
        <ele>149</ele>
        <time>2023-06-30T17:59:24Z</time>
      </trkpt>
      <trkpt lat="49.12557" lon="1.9962">
        <ele>150</ele>
        <time>2023-06-30T18:00:03Z</time>
      </trkpt>
      <trkpt lat="49.12476" lon="1.99563">
        <ele>144</ele>
        <time>2023-06-30T18:02:02Z</time>
      </trkpt>
      <trkpt lat="49.12417" lon="1.99536">
        <ele>144</ele>
        <time>2023-06-30T18:03:25Z</time>
      </trkpt>
      <trkpt lat="49.12375" lon="1.99502">
        <ele>141</ele>
        <time>2023-06-30T18:04:28Z</time>
      </trkpt>
      <trkpt lat="49.12356" lon="1.99479">
        <ele>139</ele>
        <time>2023-06-30T18:05:00Z</time>
      </trkpt>
      <trkpt lat="49.12331" lon="1.99384">
        <ele>133</ele>
        <time>2023-06-30T18:06:30Z</time>
      </trkpt>
      <trkpt lat="49.12309" lon="1.99327">
        <ele>129</ele>
        <time>2023-06-30T18:07:27Z</time>
      </trkpt>
      <trkpt lat="49.12278" lon="1.99277">
        <ele>126</ele>
        <time>2023-06-30T18:08:28Z</time>
      </trkpt>
      <trkpt lat="49.12262" lon="1.99259">
        <ele>124</ele>
        <time>2023-06-30T18:08:54Z</time>
      </trkpt>
      <trkpt lat="49.12234" lon="1.99238">
        <ele>123</ele>
        <time>2023-06-30T18:09:36Z</time>
      </trkpt>
      <trkpt lat="49.12201" lon="1.99219">
        <ele>123</ele>
        <time>2023-06-30T18:10:23Z</time>
      </trkpt>
      <trkpt lat="49.12164" lon="1.99206">
        <ele>122</ele>
        <time>2023-06-30T18:11:14Z</time>
      </trkpt>
      <trkpt lat="49.12126" lon="1.99198">
        <ele>121</ele>
        <time>2023-06-30T18:12:05Z</time>
      </trkpt>
      <trkpt lat="49.1209" lon="1.99185">
        <ele>120</ele>
        <time>2023-06-30T18:12:54Z</time>
      </trkpt>
      <trkpt lat="49.12021" lon="1.98992">
        <ele>116</ele>
        <time>2023-06-30T18:16:06Z</time>
      </trkpt>
      <trkpt lat="49.11949" lon="1.98812">
        <ele>113</ele>
        <time>2023-06-30T18:19:10Z</time>
      </trkpt>
      <trkpt lat="49.11736" lon="1.98218">
        <ele>106</ele>
        <time>2023-06-30T18:29:02Z</time>
      </trkpt>
      <trkpt lat="49.11724" lon="1.98184">
        <ele>105</ele>
        <time>2023-06-30T18:29:36Z</time>
      </trkpt>
      <trkpt lat="49.11722" lon="1.98172">
        <ele>105</ele>
        <time>2023-06-30T18:29:46Z</time>
      </trkpt>
      <trkpt lat="49.11712" lon="1.98172">
        <ele>105</ele>
        <time>2023-06-30T18:30:00Z</time>
      </trkpt>
      <trkpt lat="49.11709" lon="1.98154">
        <ele>105</ele>
        <time>2023-06-30T18:30:16Z</time>
      </trkpt>
      <trkpt lat="49.11648" lon="1.98066">
        <ele>104</ele>
        <time>2023-06-30T18:32:08Z</time>
      </trkpt>
      <trkpt lat="49.11604" lon="1.97993">
        <ele>104</ele>
        <time>2023-06-30T18:33:35Z</time>
      </trkpt>
      <trkpt lat="49.11481" lon="1.97798">
        <ele>101</ele>
        <time>2023-06-30T18:37:31Z</time>
      </trkpt>
      <trkpt lat="49.1145" lon="1.97735">
        <ele>100</ele>
        <time>2023-06-30T18:38:40Z</time>
      </trkpt>
      <trkpt lat="49.11436" lon="1.97685">
        <ele>99</ele>
        <time>2023-06-30T18:39:28Z</time>
      </trkpt>
      <trkpt lat="49.1139" lon="1.97563">
        <ele>96</ele>
        <time>2023-06-30T18:41:31Z</time>
      </trkpt>
      <trkpt lat="49.11255" lon="1.9728">
        <ele>88</ele>
        <time>2023-06-30T18:46:36Z</time>
      </trkpt>
      <trkpt lat="49.11233" lon="1.97223">
        <ele>86</ele>
        <time>2023-06-30T18:47:34Z</time>
      </trkpt>
      <trkpt lat="49.11218" lon="1.97178">
        <ele>84</ele>
        <time>2023-06-30T18:48:18Z</time>
      </trkpt>
      <trkpt lat="49.11217" lon="1.97148">
        <ele>82</ele>
        <time>2023-06-30T18:48:45Z</time>
      </trkpt>
      <trkpt lat="49.11224" lon="1.97122">
        <ele>79</ele>
        <time>2023-06-30T18:49:09Z</time>
      </trkpt>
      <trkpt lat="49.11306" lon="1.96983">
        <ele>75</ele>
        <time>2023-06-30T18:51:53Z</time>
      </trkpt>
      <trkpt lat="49.11377" lon="1.96779">
        <ele>73</ele>
        <time>2023-06-30T18:55:14Z</time>
      </trkpt>
      <trkpt lat="49.11375" lon="1.96713">
        <ele>70</ele>
        <time>2023-06-30T18:56:12Z</time>
      </trkpt>
      <trkpt lat="49.11391" lon="1.96608">
        <ele>68</ele>
        <time>2023-06-30T18:57:46Z</time>
      </trkpt>
      <trkpt lat="49.11388" lon="1.96599">
        <ele>67</ele>
        <time>2023-06-30T18:57:55Z</time>
      </trkpt>
      <trkpt lat="49.11375" lon="1.96596">
        <ele>65</ele>
        <time>2023-06-30T18:58:13Z</time>
      </trkpt>
      <trkpt lat="49.11345" lon="1.96614">
        <ele>61</ele>
        <time>2023-06-30T18:58:56Z</time>
      </trkpt>
      <trkpt lat="49.11336" lon="1.96598">
        <ele>59</ele>
        <time>2023-06-30T18:59:14Z</time>
      </trkpt>
      <trkpt lat="49.11311" lon="1.9646">
        <ele>52</ele>
        <time>2023-06-30T19:01:19Z</time>
      </trkpt>
      <trkpt lat="49.11289" lon="1.96368">
        <ele>52</ele>
        <time>2023-06-30T19:02:45Z</time>
      </trkpt>
      <trkpt lat="49.11283" lon="1.96355">
        <ele>53</ele>
        <time>2023-06-30T19:02:59Z</time>
      </trkpt>
      <trkpt lat="49.11276" lon="1.96352">
        <ele>53</ele>
        <time>2023-06-30T19:03:08Z</time>
      </trkpt>
      <trkpt lat="49.11229" lon="1.9639">
        <ele>53</ele>
        <time>2023-06-30T19:04:19Z</time>
      </trkpt>
      <trkpt lat="49.11203" lon="1.96396">
        <ele>54</ele>
        <time>2023-06-30T19:04:54Z</time>
      </trkpt>
      <trkpt lat="49.11193" lon="1.96391">
        <ele>55</ele>
        <time>2023-06-30T19:05:08Z</time>
      </trkpt>
      <trkpt lat="49.11159" lon="1.96369">
        <ele>57</ele>
        <time>2023-06-30T19:05:58Z</time>
      </trkpt>
      <trkpt lat="49.11126" lon="1.96354">
        <ele>58</ele>
        <time>2023-06-30T19:06:44Z</time>
      </trkpt>
      <trkpt lat="49.11103" lon="1.96353">
        <ele>58</ele>
        <time>2023-06-30T19:07:14Z</time>
      </trkpt>
      <trkpt lat="49.11038" lon="1.96371">
        <ele>60</ele>
        <time>2023-06-30T19:08:43Z</time>
      </trkpt>
      <trkpt lat="49.10969" lon="1.96376">
        <ele>61</ele>
        <time>2023-06-30T19:10:15Z</time>
      </trkpt>
      <trkpt lat="49.10907" lon="1.96396">
        <ele>61</ele>
        <time>2023-06-30T19:11:39Z</time>
      </trkpt>
      <trkpt lat="49.1087" lon="1.96402">
        <ele>58</ele>
        <time>2023-06-30T19:12:29Z</time>
      </trkpt>
      <trkpt lat="49.10801" lon="1.964">
        <ele>57</ele>
        <time>2023-06-30T19:14:01Z</time>
      </trkpt>
      <trkpt lat="49.10758" lon="1.96404">
        <ele>56</ele>
        <time>2023-06-30T19:14:58Z</time>
      </trkpt>
      <trkpt lat="49.10735" lon="1.96412">
        <ele>56</ele>
        <time>2023-06-30T19:15:30Z</time>
      </trkpt>
      <trkpt lat="49.10541" lon="1.96497">
        <ele>58</ele>
        <time>2023-06-30T19:19:59Z</time>
      </trkpt>
      <trkpt lat="49.10492" lon="1.96522">
        <ele>58</ele>
        <time>2023-06-30T19:21:08Z</time>
      </trkpt>
      <trkpt lat="49.10425" lon="1.96576">
        <ele>57</ele>
        <time>2023-06-30T19:22:49Z</time>
      </trkpt>
      <trkpt lat="49.10389" lon="1.96598">
        <ele>57</ele>
        <time>2023-06-30T19:23:41Z</time>
      </trkpt>
      <trkpt lat="49.10354" lon="1.9661">
        <ele>58</ele>
        <time>2023-06-30T19:24:29Z</time>
      </trkpt>
      <trkpt lat="49.103" lon="1.96618">
        <ele>58</ele>
        <time>2023-06-30T19:25:41Z</time>
      </trkpt>
      <trkpt lat="49.1027" lon="1.96618">
        <ele>57</ele>
        <time>2023-06-30T19:26:21Z</time>
      </trkpt>
      <trkpt lat="49.10251" lon="1.96569">
        <ele>60</ele>
        <time>2023-06-30T19:27:11Z</time>
      </trkpt>
      <trkpt lat="49.10219" lon="1.96501">
        <ele>66</ele>
        <time>2023-06-30T19:28:24Z</time>
      </trkpt>
      <trkpt lat="49.10205" lon="1.96501">
        <ele>67</ele>
        <time>2023-06-30T19:28:43Z</time>
      </trkpt>
      <trkpt lat="49.10199" lon="1.96498">
        <ele>67</ele>
        <time>2023-06-30T19:28:51Z</time>
      </trkpt>
      <trkpt lat="49.10196" lon="1.96491">
        <ele>68</ele>
        <time>2023-06-30T19:28:59Z</time>
      </trkpt>
      <trkpt lat="49.10201" lon="1.96476">
        <ele>68</ele>
        <time>2023-06-30T19:29:13Z</time>
      </trkpt>
      <trkpt lat="49.10201" lon="1.96474">
        <ele>69</ele>
        <time>2023-06-30T19:29:15Z</time>
      </trkpt>
      <trkpt lat="49.10164" lon="1.96437">
        <ele>74</ele>
        <time>2023-06-30T19:30:14Z</time>
      </trkpt>
      <trkpt lat="49.10153" lon="1.96421">
        <ele>76</ele>
        <time>2023-06-30T19:30:34Z</time>
      </trkpt>
      <trkpt lat="49.10143" lon="1.96386">
        <ele>79</ele>
        <time>2023-06-30T19:31:08Z</time>
      </trkpt>
      <trkpt lat="49.10125" lon="1.96289">
        <ele>84</ele>
        <time>2023-06-30T19:32:36Z</time>
      </trkpt>
      <trkpt lat="49.10093" lon="1.96171">
        <ele>84</ele>
        <time>2023-06-30T19:34:27Z</time>
      </trkpt>
      <trkpt lat="49.10051" lon="1.9598">
        <ele>83</ele>
        <time>2023-06-30T19:37:24Z</time>
      </trkpt>
      <trkpt lat="49.10003" lon="1.95855">
        <ele>84</ele>
        <time>2023-06-30T19:39:30Z</time>
      </trkpt>
      <trkpt lat="49.09998" lon="1.95799">
        <ele>85</ele>
        <time>2023-06-30T19:40:20Z</time>
      </trkpt>
      <trkpt lat="49.10031" lon="1.95629">
        <ele>91</ele>
        <time>2023-06-30T19:42:54Z</time>
      </trkpt>
      <trkpt lat="49.10035" lon="1.95575">
        <ele>94</ele>
        <time>2023-06-30T19:43:42Z</time>
      </trkpt>
      <trkpt lat="49.10024" lon="1.95499">
        <ele>98</ele>
        <time>2023-06-30T19:44:50Z</time>
      </trkpt>
      <trkpt lat="49.09924" lon="1.9521">
        <ele>103</ele>
        <time>2023-06-30T19:49:36Z</time>
      </trkpt>
      <trkpt lat="49.09706" lon="1.94628">
        <ele>109</ele>
        <time>2023-06-30T19:59:21Z</time>
      </trkpt>
      <trkpt lat="49.09537" lon="1.9436">
        <ele>111</ele>
        <time>2023-06-30T20:04:47Z</time>
      </trkpt>
      <trkpt lat="49.09535" lon="1.94366">
        <ele>111</ele>
        <time>2023-06-30T20:04:52Z</time>
      </trkpt>
      <trkpt lat="49.10197" lon="1.92796">
        <ele>107</ele>
        <time>2023-06-30T20:32:04Z</time>
      </trkpt>
      <trkpt lat="49.10276" lon="1.92604">
        <ele>102</ele>
        <time>2023-06-30T20:35:22Z</time>
      </trkpt>
      <trkpt lat="49.1028" lon="1.92599">
        <ele>102</ele>
        <time>2023-06-30T20:35:29Z</time>
      </trkpt>
      <trkpt lat="49.10291" lon="1.92569">
        <ele>102</ele>
        <time>2023-06-30T20:35:59Z</time>
      </trkpt>
      <trkpt lat="49.10348" lon="1.92438">
        <ele>103</ele>
        <time>2023-06-30T20:38:17Z</time>
      </trkpt>
      <trkpt lat="49.10358" lon="1.92406">
        <ele>103</ele>
        <time>2023-06-30T20:38:47Z</time>
      </trkpt>
      <trkpt lat="49.10382" lon="1.92348">
        <ele>103</ele>
        <time>2023-06-30T20:39:47Z</time>
      </trkpt>
      <trkpt lat="49.10405" lon="1.92288">
        <ele>104</ele>
        <time>2023-06-30T20:40:48Z</time>
      </trkpt>
      <trkpt lat="49.10615" lon="1.91807">
        <ele>106</ele>
        <time>2023-06-30T20:49:13Z</time>
      </trkpt>
      <trkpt lat="49.10755" lon="1.91476">
        <ele>104</ele>
        <time>2023-06-30T20:54:58Z</time>
      </trkpt>
      <trkpt lat="49.10781" lon="1.91421">
        <ele>105</ele>
        <time>2023-06-30T20:55:57Z</time>
      </trkpt>
      <trkpt lat="49.10849" lon="1.91244">
        <ele>105</ele>
        <time>2023-06-30T20:58:56Z</time>
      </trkpt>
      <trkpt lat="49.10881" lon="1.91181">
        <ele>105</ele>
        <time>2023-06-30T21:00:06Z</time>
      </trkpt>
      <trkpt lat="49.10891" lon="1.91146">
        <ele>105</ele>
        <time>2023-06-30T21:00:39Z</time>
      </trkpt>
      <trkpt lat="49.10978" lon="1.90933">
        <ele>108</ele>
        <time>2023-06-30T21:04:18Z</time>
      </trkpt>
      <trkpt lat="49.10982" lon="1.90926">
        <ele>109</ele>
        <time>2023-06-30T21:04:27Z</time>
      </trkpt>
      <trkpt lat="49.1099" lon="1.90919">
        <ele>109</ele>
        <time>2023-06-30T21:04:39Z</time>
      </trkpt>
      <trkpt lat="49.10993" lon="1.90914">
        <ele>110</ele>
        <time>2023-06-30T21:04:45Z</time>
      </trkpt>
      <trkpt lat="49.11128" lon="1.90602">
        <ele>109</ele>
        <time>2023-06-30T21:10:11Z</time>
      </trkpt>
      <trkpt lat="49.11132" lon="1.90587">
        <ele>109</ele>
        <time>2023-06-30T21:10:26Z</time>
      </trkpt>
      <trkpt lat="49.11182" lon="1.90452">
        <ele>111</ele>
        <time>2023-06-30T21:12:41Z</time>
      </trkpt>
      <trkpt lat="49.11182" lon="1.90451">
        <ele>111</ele>
        <time>2023-06-30T21:12:42Z</time>
      </trkpt>
      <trkpt lat="49.11185" lon="1.90495">
        <ele>110</ele>
        <time>2023-06-30T21:13:21Z</time>
      </trkpt>
      <trkpt lat="49.11192" lon="1.90522">
        <ele>111</ele>
        <time>2023-06-30T21:13:46Z</time>
      </trkpt>
      <trkpt lat="49.11206" lon="1.9056">
        <ele>111</ele>
        <time>2023-06-30T21:14:24Z</time>
      </trkpt>
      <trkpt lat="49.11235" lon="1.90711">
        <ele>113</ele>
        <time>2023-06-30T21:16:42Z</time>
      </trkpt>
      <trkpt lat="49.11233" lon="1.90742">
        <ele>113</ele>
        <time>2023-06-30T21:17:09Z</time>
      </trkpt>
      <trkpt lat="49.11214" lon="1.90749">
        <ele>113</ele>
        <time>2023-06-30T21:17:35Z</time>
      </trkpt>
      <trkpt lat="49.11209" lon="1.90754">
        <ele>114</ele>
        <time>2023-06-30T21:17:43Z</time>
      </trkpt>
      <trkpt lat="49.11207" lon="1.9076">
        <ele>114</ele>
        <time>2023-06-30T21:17:49Z</time>
      </trkpt>
      <trkpt lat="49.11198" lon="1.90853">
        <ele>114</ele>
        <time>2023-06-30T21:19:11Z</time>
      </trkpt>
      <trkpt lat="49.11201" lon="1.90863">
        <ele>114</ele>
        <time>2023-06-30T21:19:20Z</time>
      </trkpt>
      <trkpt lat="49.11206" lon="1.90873">
        <ele>114</ele>
        <time>2023-06-30T21:19:31Z</time>
      </trkpt>
      <trkpt lat="49.11248" lon="1.90917">
        <ele>113</ele>
        <time>2023-06-30T21:20:39Z</time>
      </trkpt>
      <trkpt lat="49.11256" lon="1.90922">
        <ele>113</ele>
        <time>2023-06-30T21:20:51Z</time>
      </trkpt>
      <trkpt lat="49.11267" lon="1.90922">
        <ele>113</ele>
        <time>2023-06-30T21:21:06Z</time>
      </trkpt>
      <trkpt lat="49.1127" lon="1.90942">
        <ele>113</ele>
        <time>2023-06-30T21:21:24Z</time>
      </trkpt>
      <trkpt lat="49.11282" lon="1.90976">
        <ele>112</ele>
        <time>2023-06-30T21:21:57Z</time>
      </trkpt>
      <trkpt lat="49.11283" lon="1.90993">
        <ele>112</ele>
        <time>2023-06-30T21:22:12Z</time>
      </trkpt>
      <trkpt lat="49.11261" lon="1.91363">
        <ele>108</ele>
        <time>2023-06-30T21:27:37Z</time>
      </trkpt>
      <trkpt lat="49.11258" lon="1.91397">
        <ele>109</ele>
        <time>2023-06-30T21:28:07Z</time>
      </trkpt>
      <trkpt lat="49.11254" lon="1.91419">
        <ele>109</ele>
        <time>2023-06-30T21:28:27Z</time>
      </trkpt>
      <trkpt lat="49.11256" lon="1.91424">
        <ele>109</ele>
        <time>2023-06-30T21:28:32Z</time>
      </trkpt>
      <trkpt lat="49.11257" lon="1.91436">
        <ele>109</ele>
        <time>2023-06-30T21:28:42Z</time>
      </trkpt>
      <trkpt lat="49.11257" lon="1.91883">
        <ele>108</ele>
        <time>2023-06-30T21:35:13Z</time>
      </trkpt>
      <trkpt lat="49.1125" lon="1.92067">
        <ele>108</ele>
        <time>2023-06-30T21:37:54Z</time>
      </trkpt>
      <trkpt lat="49.11246" lon="1.92118">
        <ele>107</ele>
        <time>2023-06-30T21:38:39Z</time>
      </trkpt>
      <trkpt lat="49.11226" lon="1.9225">
        <ele>103</ele>
        <time>2023-06-30T21:40:37Z</time>
      </trkpt>
      <trkpt lat="49.11178" lon="1.92489">
        <ele>102</ele>
        <time>2023-06-30T21:44:15Z</time>
      </trkpt>
      <trkpt lat="49.11173" lon="1.92525">
        <ele>102</ele>
        <time>2023-06-30T21:44:47Z</time>
      </trkpt>
      <trkpt lat="49.11179" lon="1.92744">
        <ele>101</ele>
        <time>2023-06-30T21:47:59Z</time>
      </trkpt>
      <trkpt lat="49.1118" lon="1.92755">
        <ele>101</ele>
        <time>2023-06-30T21:48:09Z</time>
      </trkpt>
      <trkpt lat="49.11181" lon="1.92787">
        <ele>101</ele>
        <time>2023-06-30T21:48:37Z</time>
      </trkpt>
      <trkpt lat="49.1118" lon="1.92906">
        <ele>99</ele>
        <time>2023-06-30T21:50:21Z</time>
      </trkpt>
      <trkpt lat="49.11176" lon="1.92984">
        <ele>98</ele>
        <time>2023-06-30T21:51:29Z</time>
      </trkpt>
      <trkpt lat="49.11232" lon="1.93039">
        <ele>98</ele>
        <time>2023-06-30T21:52:58Z</time>
      </trkpt>
      <trkpt lat="49.11225" lon="1.9306">
        <ele>98</ele>
        <time>2023-06-30T21:53:18Z</time>
      </trkpt>
      <trkpt lat="49.11202" lon="1.93165">
        <ele>98</ele>
        <time>2023-06-30T21:54:55Z</time>
      </trkpt>
      <trkpt lat="49.11189" lon="1.93197">
        <ele>97</ele>
        <time>2023-06-30T21:55:28Z</time>
      </trkpt>
      <trkpt lat="49.11184" lon="1.93208">
        <ele>97</ele>
        <time>2023-06-30T21:55:40Z</time>
      </trkpt>
    </trkseg>
  </trk>
</gpx>